Time;durP1;ratioP1;P1;durP2;ratioP2;P2;SDS_P1;SDS_P2;PMS_P1;PMS_P2;Temp;Humidity;BMP_temperature;BMP_pressure;BME280_temperature;BME280_humidity;BME280_pressure;Samples;Min_cycle;Max_cycle;Signal;HPM_P1;HPM_P2
2022/04/03 00:03:11;;;;;;;;;0.00;0.00;;;;;;;;2;261076068;261076068;-78
2022/04/03 00:12:40;;;;;;;;;0.00;0.00;;;;;;;;2;288084945;288084945;-79
2022/04/03 00:20:55;;;;;;;;;0.00;0.00;;;;;;;;2;261076983;261076983;-79
2022/04/03 00:30:23;;;;;;;;;0.00;0.00;;;;;;;;2;288084354;288084354;-79
2022/04/03 00:38:38;;;;;;;;;0.00;0.00;;;;;;;;2;261075609;261075609;-78
2022/04/03 00:48:07;;;;;;;;;0.00;0.00;;;;;;;;2;288081058;288081058;-79
2022/04/03 00:56:22;;;;;;;;;0.00;0.00;;;;;;;;2;261078402;261078402;-78
2022/04/03 01:09:09;;;;;;;;;0.00;0.00;;;;;;;;2;288085297;288085297;-78
2022/04/03 01:17:25;;;;;;;;;0.00;0.00;;;;;;;;2;261074662;261074662;-78
2022/04/03 01:26:52;;;;;;;;;0.00;0.00;;;;;;;;2;288085096;288085096;-77
2022/04/03 01:35:08;;;;;;;;;0.00;0.00;;;;;;;;2;261074958;261074958;-77
2022/04/03 01:44:36;;;;;;;;;0.00;0.00;;;;;;;;2;288086909;288086909;-78
2022/04/03 01:52:51;;;;;;;;;0.00;0.00;;;;;;;;2;261076798;261076798;-78
2022/04/03 02:02:19;;;;;;;;;0.00;0.00;;;;;;;;2;288084528;288084528;-77
2022/04/03 02:10:34;;;;;;;;;0.00;0.00;;;;;;;;2;261075992;261075992;-77
2022/04/03 02:20:02;;;;;;;;;0.00;0.00;;;;;;;;2;288081981;288081981;-77
2022/04/03 02:28:18;;;;;;;;;0.00;0.00;;;;;;;;2;261074000;261074000;-77
2022/04/03 02:37:45;;;;;;;;;0.00;0.00;;;;;;;;2;288085535;288085535;-77
2022/04/03 02:46:00;;;;;;;;;0.00;0.00;;;;;;;;2;261078916;261078916;-77
2022/04/03 02:55:28;;;;;;;;;0.00;0.00;;;;;;;;2;288081769;288081769;-78
2022/04/03 03:03:43;;;;;;;;;0.00;0.00;;;;;;;;2;261078118;261078118;-78
2022/04/03 03:13:12;;;;;;;;;0.00;0.00;;;;;;;;2;288085049;288085049;-78
2022/04/03 03:21:28;;;;;;;;;0.00;0.00;;;;;;;;2;261075761;261075761;-77
2022/04/03 03:30:55;;;;;;;;;0.00;0.00;;;;;;;;2;288084193;288084193;-78
2022/04/03 03:39:12;;;;;;;;;0.00;0.00;;;;;;;;2;261077044;261077044;-77
2022/04/03 03:48:39;;;;;;;;;0.00;0.00;;;;;;;;2;288085770;288085770;-78
2022/04/03 03:56:55;;;;;;;;;0.00;0.00;;;;;;;;2;261075618;261075618;-77
2022/04/03 04:06:22;;;;;;;;;0.00;0.00;;;;;;;;2;288083344;288083344;-78
2022/04/03 04:14:40;;;;;;;;;0.00;0.00;;;;;;;;2;261075186;261075186;-78
2022/04/03 04:24:08;;;;;;;;;0.00;0.00;;;;;;;;2;288084686;288084686;-78
2022/04/03 04:32:23;;;;;;;;;0.00;0.00;;;;;;;;2;261076208;261076208;-77
2022/04/03 04:41:51;;;;;;;;;0.00;0.00;;;;;;;;2;288083375;288083375;-77
2022/04/03 04:50:07;;;;;;;;;0.00;0.00;;;;;;;;2;261074437;261074437;-77
2022/04/03 04:59:35;;;;;;;;;0.00;0.00;;;;;;;;2;288083575;288083575;-77
2022/04/03 05:07:55;;;;;;;;;0.00;0.00;;;;;;;;2;261077287;261077287;-77
2022/04/03 05:17:23;;;;;;;;;0.00;0.00;;;;;;;;2;288081453;288081453;-77
2022/04/03 05:25:38;;;;;;;;;0.00;0.00;;;;;;;;2;261075351;261075351;-77
2022/04/03 05:35:07;;;;;;;;;0.00;0.00;;;;;;;;2;288082334;288082334;-78
2022/04/03 05:43:23;;;;;;;;;0.00;0.00;;;;;;;;2;261073490;261073490;-77
2022/04/03 05:52:51;;;;;;;;;0.00;0.00;;;;;;;;2;288081629;288081629;-77
2022/04/03 06:01:08;;;;;;;;;0.00;0.00;;;;;;;;2;261075870;261075870;-77
2022/04/03 06:10:36;;;;;;;;;0.00;0.00;;;;;;;;2;288083968;288083968;-77
2022/04/03 06:18:53;;;;;;;;;0.00;0.00;;;;;;;;2;261078016;261078016;-77
2022/04/03 06:28:20;;;;;;;;;0.00;0.00;;;;;;;;2;288083543;288083543;-78
2022/04/03 06:36:36;;;;;;;;;0.00;0.00;;;;;;;;2;261075047;261075047;-77
2022/04/03 06:46:04;;;;;;;;;0.00;0.00;;;;;;;;2;288082907;288082907;-77
2022/04/03 06:54:19;;;;;;;;;0.00;0.00;;;;;;;;2;261074708;261074708;-77
2022/04/03 07:03:47;;;;;;;;;0.00;0.00;;;;;;;;2;288083853;288083853;-77
2022/04/03 07:12:03;;;;;;;;;0.00;0.00;;;;;;;;2;261077624;261077624;-78
2022/04/03 07:21:30;;;;;;;;;0.00;0.00;;;;;;;;2;288083543;288083543;-78
2022/04/03 07:29:46;;;;;;;;;0.00;0.00;;;;;;;;2;261075656;261075656;-77
2022/04/03 07:39:15;;;;;;;;;0.00;0.00;;;;;;;;2;288083342;288083342;-78
2022/04/03 07:47:30;;;;;;;;;0.00;0.00;;;;;;;;2;261074237;261074237;-78
2022/04/03 07:56:58;;;;;;;;;0.00;0.00;;;;;;;;2;288085472;288085472;-78
2022/04/03 08:05:13;;;;;;;;;0.00;0.00;;;;;;;;2;261073866;261073866;-78
2022/04/03 08:14:41;;;;;;;;;0.00;0.00;;;;;;;;2;288082792;288082792;-78
2022/04/03 08:22:58;;;;;;;;;0.00;0.00;;;;;;;;2;261076001;261076001;-78
2022/04/03 08:32:25;;;;;;;;;0.00;0.00;;;;;;;;2;288083648;288083648;-80
2022/04/03 08:40:42;;;;;;;;;0.00;0.00;;;;;;;;2;261077992;261077992;-77
2022/04/03 08:50:12;;;;;;;;;0.00;0.00;;;;;;;;2;288081818;288081818;-79
2022/04/03 08:58:28;;;;;;;;;0.00;0.00;;;;;;;;2;261077186;261077186;-79
2022/04/03 09:08:00;;;;;;;;;0.00;0.00;;;;;;;;2;288080295;288080295;-77
2022/04/03 09:16:15;;;;;;;;;0.00;0.00;;;;;;;;2;261076717;261076717;-76
2022/04/03 09:25:44;;;;;;;;;0.00;0.00;;;;;;;;2;288082044;288082044;-76
2022/04/03 09:34:00;;;;;;;;;0.00;0.00;;;;;;;;2;261076883;261076883;-77
2022/04/03 09:43:28;;;;;;;;;0.00;0.00;;;;;;;;2;288082362;288082362;-78
2022/04/03 09:51:44;;;;;;;;;0.00;0.00;;;;;;;;2;261077385;261077385;-77
2022/04/03 10:01:22;;;;;;;;;0.00;0.00;;;;;;;;2;288084577;288084577;-79
2022/04/03 10:09:38;;;;;;;;;0.00;0.00;;;;;;;;2;261076271;261076271;-76
2022/04/03 10:19:05;;;;;;;;;0.00;0.00;;;;;;;;2;288084362;288084362;-78
2022/04/03 10:27:32;;;;;;;;;0.00;0.00;;;;;;;;2;261077462;261077462;-77
2022/04/03 10:37:00;;;;;;;;;0.00;0.00;;;;;;;;2;288081880;288081880;-77
2022/04/03 10:45:17;;;;;;;;;0.00;0.00;;;;;;;;2;261076051;261076051;-78
2022/04/03 10:54:49;;;;;;;;;0.00;0.00;;;;;;;;2;288084733;288084733;-78
2022/04/03 11:03:14;;;;;;;;;0.00;0.00;;;;;;;;2;261075848;261075848;-78
2022/04/03 11:12:54;;;;;;;;;0.00;0.00;;;;;;;;2;288083367;288083367;-77
2022/04/03 11:21:21;;;;;;;;;0.00;0.00;;;;;;;;2;261075096;261075096;-77
2022/04/03 11:30:49;;;;;;;;;0.00;0.00;;;;;;;;2;288083498;288083498;-78
2022/04/03 11:39:05;;;;;;;;;0.00;0.00;;;;;;;;2;261074770;261074770;-78
2022/04/03 11:48:34;;;;;;;;;0.00;0.00;;;;;;;;2;288084155;288084155;-79
2022/04/03 11:56:49;;;;;;;;;0.00;0.00;;;;;;;;2;261079366;261079366;-80
2022/04/03 12:06:18;;;;;;;;;0.00;0.00;;;;;;;;2;288082137;288082137;-77
2022/04/03 12:14:35;;;;;;;;;0.00;0.00;;;;;;;;2;261074112;261074112;-78
2022/04/03 12:24:03;;;;;;;;;0.00;0.00;;;;;;;;2;288082463;288082463;-79
2022/04/03 12:32:28;;;;;;;;;0.00;0.00;;;;;;;;2;261077352;261077352;-77
2022/04/03 12:41:57;;;;;;;;;0.00;0.00;;;;;;;;2;288083292;288083292;-77
2022/04/03 12:50:24;;;;;;;;;0.00;0.00;;;;;;;;2;261074946;261074946;-78
2022/04/03 12:59:51;;;;;;;;;0.00;0.00;;;;;;;;2;288085520;288085520;-78
2022/04/03 13:08:11;;;;;;;;;0.00;0.00;;;;;;;;2;261077922;261077922;-79
2022/04/03 13:17:38;;;;;;;;;0.00;0.00;;;;;;;;2;288085244;288085244;-80
2022/04/03 13:25:57;;;;;;;;;0.00;0.00;;;;;;;;2;261074850;261074850;-76
2022/04/03 13:35:25;;;;;;;;;0.00;0.00;;;;;;;;2;288082913;288082913;-75
2022/04/03 13:43:41;;;;;;;;;0.00;0.00;;;;;;;;2;261074617;261074617;-76
2022/04/03 13:53:09;;;;;;;;;0.00;0.00;;;;;;;;2;288088821;288088821;-76
2022/04/03 14:01:24;;;;;;;;;0.00;0.00;;;;;;;;2;261077786;261077786;-76
2022/04/03 14:10:53;;;;;;;;;0.00;0.00;;;;;;;;2;288082627;288082627;-78
2022/04/03 14:19:08;;;;;;;;;0.00;0.00;;;;;;;;2;261076094;261076094;-77
2022/04/03 14:28:36;;;;;;;;;0.00;0.00;;;;;;;;2;288086060;288086060;-76
2022/04/03 14:36:52;;;;;;;;;0.00;0.00;;;;;;;;2;261076172;261076172;-76
2022/04/03 14:46:21;;;;;;;;;0.00;0.00;;;;;;;;2;288085887;288085887;-78
2022/04/03 14:54:36;;;;;;;;;0.00;0.00;;;;;;;;2;261076879;261076879;-74
2022/04/03 15:04:04;;;;;;;;;0.00;0.00;;;;;;;;2;288083065;288083065;-75
2022/04/03 15:12:20;;;;;;;;;0.00;0.00;;;;;;;;2;261076451;261076451;-77
2022/04/03 15:21:47;;;;;;;;;0.00;0.00;;;;;;;;2;288082176;288082176;-76
2022/04/03 15:30:03;;;;;;;;;0.00;0.00;;;;;;;;2;261075727;261075727;-76
2022/04/03 15:39:31;;;;;;;;;0.00;0.00;;;;;;;;2;288086204;288086204;-75
2022/04/03 15:47:46;;;;;;;;;0.00;0.00;;;;;;;;2;261076422;261076422;-75
2022/04/03 15:57:17;;;;;;;;;0.00;0.00;;;;;;;;2;288085162;288085162;-76
2022/04/03 16:05:34;;;;;;;;;0.00;0.00;;;;;;;;2;261075184;261075184;-77
2022/04/03 16:15:01;;;;;;;;;0.00;0.00;;;;;;;;2;288083126;288083126;-72
2022/04/03 16:23:17;;;;;;;;;0.00;0.00;;;;;;;;2;261075375;261075375;-75
2022/04/03 16:32:45;;;;;;;;;0.00;0.00;;;;;;;;2;288083777;288083777;-75
2022/04/03 16:41:01;;;;;;;;;0.00;0.00;;;;;;;;2;261074286;261074286;-77
2022/04/03 16:50:28;;;;;;;;;0.00;0.00;;;;;;;;2;288085450;288085450;-76
2022/04/03 16:58:44;;;;;;;;;0.00;0.00;;;;;;;;2;261075390;261075390;-77
2022/04/03 17:08:12;;;;;;;;;0.00;0.00;;;;;;;;2;288083602;288083602;-75
2022/04/03 17:16:27;;;;;;;;;0.00;0.00;;;;;;;;2;261075969;261075969;-76
2022/04/03 17:25:56;;;;;;;;;0.00;0.00;;;;;;;;2;288083193;288083193;-77
2022/04/03 17:34:12;;;;;;;;;0.00;0.00;;;;;;;;2;261077116;261077116;-75
2022/04/03 17:43:39;;;;;;;;;0.00;0.00;;;;;;;;2;288084621;288084621;-76
2022/04/03 17:51:55;;;;;;;;;0.00;0.00;;;;;;;;2;261076447;261076447;-75
2022/04/03 18:01:22;;;;;;;;;0.00;0.00;;;;;;;;2;288084255;288084255;-75
2022/04/03 18:09:38;;;;;;;;;0.00;0.00;;;;;;;;2;261075118;261075118;-76
2022/04/03 18:19:08;;;;;;;;;0.00;0.00;;;;;;;;2;288083944;288083944;-76
2022/04/03 18:27:24;;;;;;;;;0.00;0.00;;;;;;;;2;261075952;261075952;-77
2022/04/03 18:36:51;;;;;;;;;0.00;0.00;;;;;;;;2;288084427;288084427;-77
2022/04/03 18:45:07;;;;;;;;;0.00;0.00;;;;;;;;2;261077279;261077279;-76
2022/04/03 18:54:35;;;;;;;;;0.00;0.00;;;;;;;;2;288083849;288083849;-77
2022/04/03 19:02:50;;;;;;;;;0.00;0.00;;;;;;;;2;261077727;261077727;-77
2022/04/03 19:12:18;;;;;;;;;0.00;0.00;;;;;;;;2;288083216;288083216;-77
2022/04/03 19:20:33;;;;;;;;;0.00;0.00;;;;;;;;2;261076232;261076232;-76
2022/04/03 19:30:01;;;;;;;;;0.00;0.00;;;;;;;;2;288082650;288082650;-76
2022/04/03 19:38:16;;;;;;;;;0.00;0.00;;;;;;;;2;261079459;261079459;-77
2022/04/03 19:47:44;;;;;;;;;0.00;0.00;;;;;;;;2;288082514;288082514;-76
2022/04/03 19:56:00;;;;;;;;;0.00;0.00;;;;;;;;2;261078972;261078972;-76
2022/04/03 20:05:27;;;;;;;;;0.00;0.00;;;;;;;;2;288087025;288087025;-76
2022/04/03 20:13:43;;;;;;;;;0.00;0.00;;;;;;;;2;261078311;261078311;-76
2022/04/03 20:23:13;;;;;;;;;0.00;0.00;;;;;;;;2;288086392;288086392;-76
2022/04/03 20:31:29;;;;;;;;;0.00;0.00;;;;;;;;2;261077613;261077613;-76
2022/04/03 20:40:57;;;;;;;;;0.00;0.00;;;;;;;;2;288088728;288088728;-76
2022/04/03 20:49:13;;;;;;;;;0.00;0.00;;;;;;;;2;261077334;261077334;-76
2022/04/03 20:58:41;;;;;;;;;0.00;0.00;;;;;;;;2;288085155;288085155;-76
2022/04/03 21:06:56;;;;;;;;;0.00;0.00;;;;;;;;2;261079701;261079701;-76
2022/04/03 21:16:24;;;;;;;;;0.00;0.00;;;;;;;;2;288085510;288085510;-76
2022/04/03 21:24:39;;;;;;;;;0.00;0.00;;;;;;;;2;261075558;261075558;-76
2022/04/03 21:34:07;;;;;;;;;0.00;0.00;;;;;;;;2;288085807;288085807;-76
2022/04/03 21:42:25;;;;;;;;;0.00;0.00;;;;;;;;2;261075688;261075688;-76
2022/04/03 21:51:52;;;;;;;;;0.00;0.00;;;;;;;;2;288082830;288082830;-76
2022/04/03 22:00:14;;;;;;;;;0.00;0.00;;;;;;;;2;261078583;261078583;-76
2022/04/03 22:09:42;;;;;;;;;0.00;0.00;;;;;;;;2;288085513;288085513;-75
2022/04/03 22:17:57;;;;;;;;;0.00;0.00;;;;;;;;2;261076817;261076817;-75
2022/04/03 22:27:28;;;;;;;;;0.00;0.00;;;;;;;;2;288083578;288083578;-75
2022/04/03 22:35:43;;;;;;;;;0.00;0.00;;;;;;;;2;261076778;261076778;-75
2022/04/03 22:45:11;;;;;;;;;0.00;0.00;;;;;;;;2;288084703;288084703;-75
2022/04/03 22:53:27;;;;;;;;;0.00;0.00;;;;;;;;2;261078602;261078602;-75
2022/04/03 23:02:55;;;;;;;;;0.00;0.00;;;;;;;;2;288087947;288087947;-75
2022/04/03 23:11:10;;;;;;;;;0.00;0.00;;;;;;;;2;261077651;261077651;-75
2022/04/03 23:20:38;;;;;;;;;0.00;0.00;;;;;;;;2;288086628;288086628;-75
2022/04/03 23:28:53;;;;;;;;;0.00;0.00;;;;;;;;2;261077576;261077576;-75
2022/04/03 23:38:21;;;;;;;;;0.00;0.00;;;;;;;;2;288083788;288083788;-75
2022/04/03 23:46:37;;;;;;;;;0.00;0.00;;;;;;;;2;261076691;261076691;-75
2022/04/03 23:56:04;;;;;;;;;0.00;0.00;;;;;;;;2;288083827;288083827;-75
